Ashaiiu, Virginia
Current Conditions -  °F | °C
As of 1:54 PM on Friday 28 Nov 2014 (Local Time) from KOFP Reporting Station
Clear Clear  
Wind Chill: 35°   Ceiling: Unl
Heat Index: 41°   Visibility: 10mi
Dew Point: 19°   Wind: 10mph
Humidity: 41%   Direction: 310°NW
Pressure: 30.29"   Gusts: NA
Location:  37.7534°N, 77.495°W
Report Text: KOFP 281854Z AUTO 31009KT 280V360 10SM CLR 05/M07 A3029 RMK AO2 SLP257 T00501072
Loading
Personal Weather Stations






























Interactive Weather Map New forecast layout! Learn more

10-Day Weather Forecast

Advertisements
Track Severe Weather on mobile